createdAt,value
2018-06-03T00:02:25.372Z,101244.23
2018-06-03T00:04:51.466Z,101246.06
2018-06-03T00:07:17.453Z,101250.13
2018-06-03T00:09:43.383Z,101248.39
2018-06-03T00:12:09.276Z,101244.30
2018-06-03T00:14:35.172Z,101244.33
2018-06-03T00:17:01.069Z,101240.48
2018-06-03T00:19:26.992Z,101242.24
2018-06-03T00:21:52.887Z,101239.49
2018-06-03T00:24:19.722Z,101244.84
2018-06-03T00:26:45.984Z,101242.61
2018-06-03T00:29:11.870Z,101252.55
2018-06-03T00:31:37.755Z,101252.55
2018-06-03T00:34:03.701Z,101253.59
2018-06-03T00:36:42.844Z,101259.73
2018-06-03T00:39:08.775Z,101250.25
2018-06-03T00:41:34.680Z,101258.83
2018-06-03T00:44:00.584Z,101255.64
2018-06-03T00:46:26.516Z,101257.47
2018-06-03T00:48:52.399Z,101261.07
2018-06-03T00:51:18.341Z,101259.22
2018-06-03T00:53:44.355Z,101266.30
2018-06-03T00:56:22.566Z,101266.52
2018-06-03T00:58:48.535Z,101262.08
2018-06-03T01:01:14.463Z,101262.20
2018-06-03T01:03:40.355Z,101260.35
2018-06-03T01:06:06.309Z,101263.97
2018-06-03T01:08:32.205Z,101263.33
2018-06-03T01:10:58.773Z,101263.69
2018-06-03T01:13:24.688Z,101260.41
2018-06-03T01:15:50.631Z,101263.05
2018-06-03T01:18:16.506Z,101261.38
2018-06-03T01:20:45.198Z,101270.33
2018-06-03T01:23:11.991Z,101272.00
2018-06-03T01:25:37.973Z,101276.55
2018-06-03T01:28:04.973Z,101268.99
2018-06-03T01:30:30.850Z,101266.00
2018-06-03T01:32:56.762Z,101267.86
2018-06-03T01:36:00.976Z,101270.69
2018-06-03T01:38:28.280Z,101264.23
2018-06-03T01:40:55.395Z,101264.56
2018-06-03T01:43:22.592Z,101269.26
2018-06-03T01:45:49.693Z,101261.83
2018-06-03T01:48:16.833Z,101265.11
2018-06-03T01:50:44.096Z,101262.44
2018-06-03T01:53:11.252Z,101260.63
2018-06-03T01:55:38.680Z,101254.75
2018-06-03T01:58:05.900Z,101262.91
2018-06-03T02:00:33.425Z,101262.37
2018-06-03T02:03:00.622Z,101262.11
2018-06-03T02:05:27.779Z,101261.10
2018-06-03T02:07:55.117Z,101261.42
2018-06-03T02:10:22.265Z,101261.89
2018-06-03T02:12:49.411Z,101258.19
2018-06-03T02:15:16.618Z,101258.75
2018-06-03T02:17:43.742Z,101259.16
2018-06-03T02:20:10.935Z,101258.44
2018-06-03T02:22:38.476Z,101258.48
2018-06-03T02:25:05.625Z,101259.16
2018-06-03T02:27:33.194Z,101258.29
2018-06-03T02:30:00.559Z,101259.91
2018-06-03T02:32:34.555Z,101260.67
2018-06-03T02:35:01.681Z,101259.16
2018-06-03T02:37:28.836Z,101260.49
2018-06-03T02:39:56.132Z,101261.64
2018-06-03T02:42:23.284Z,101255.91
2018-06-03T02:44:50.404Z,101252.28
2018-06-03T02:47:17.597Z,101252.38
2018-06-03T02:49:44.765Z,101250.75
2018-06-03T02:52:12.007Z,101253.42
2018-06-03T02:54:39.167Z,101250.08
2018-06-03T02:57:06.320Z,101253.03
2018-06-03T02:59:33.451Z,101257.43
2018-06-03T03:02:01.131Z,101248.55
2018-06-03T03:04:28.352Z,101257.03
2018-06-03T03:06:55.487Z,101257.00
2018-06-03T03:09:22.653Z,101255.42
2018-06-03T03:11:49.750Z,101252.14
2018-06-03T03:14:16.852Z,101250.80
2018-06-03T03:16:44.151Z,101253.08
2018-06-03T03:19:11.317Z,101258.81
2018-06-03T03:21:39.455Z,101256.07
2018-06-03T03:24:06.614Z,101255.74
2018-06-03T03:26:33.717Z,101254.02
2018-06-03T03:29:00.916Z,101253.15
2018-06-03T03:31:29.176Z,101252.35
2018-06-03T03:33:56.295Z,101254.55
2018-06-03T03:36:23.441Z,101253.89
2018-06-03T03:38:50.616Z,101263.60
2018-06-03T03:41:18.939Z,101259.20
2018-06-03T03:43:46.074Z,101260.68
2018-06-03T03:46:13.263Z,101258.48
2018-06-03T03:48:40.405Z,101259.20
2018-06-03T03:51:07.554Z,101266.48
2018-06-03T03:53:34.804Z,101268.77
2018-06-03T03:56:02.167Z,101263.20
2018-06-03T03:58:29.317Z,101269.62
2018-06-03T04:00:56.529Z,101268.77
2018-06-03T04:03:23.733Z,101267.97
2018-06-03T04:05:51.067Z,101267.05
2018-06-03T04:08:18.242Z,101272.69
2018-06-03T04:10:46.327Z,101267.89
2018-06-03T04:13:13.864Z,101272.36
2018-06-03T04:15:41.016Z,101271.42
2018-06-03T04:18:09.269Z,101268.69
2018-06-03T04:20:36.611Z,101277.81
2018-06-03T04:23:03.887Z,101277.70
2018-06-03T04:25:31.061Z,101277.41
2018-06-03T04:27:58.176Z,101277.41
2018-06-03T04:30:25.496Z,101280.70
2018-06-03T04:32:52.618Z,101281.56
2018-06-03T04:35:19.808Z,101285.23
2018-06-03T04:37:47.204Z,101289.02
2018-06-03T04:40:14.309Z,101290.65
2018-06-03T04:42:41.532Z,101290.28
2018-06-03T04:45:08.847Z,101288.63
2018-06-03T04:47:36.255Z,101287.43
2018-06-03T04:50:03.403Z,101292.84
2018-06-03T04:52:30.843Z,101294.36
2018-06-03T04:54:58.409Z,101293.02
2018-06-03T04:57:25.547Z,101293.88
2018-06-03T04:59:52.745Z,101292.44
2018-06-03T05:02:19.867Z,101297.16
2018-06-03T05:04:47.197Z,101307.03
2018-06-03T05:07:14.537Z,101300.22
2018-06-03T05:09:42.555Z,101300.69
2018-06-03T05:12:09.660Z,101301.23
2018-06-03T05:14:36.991Z,101301.54
2018-06-03T05:17:04.256Z,101303.42
2018-06-03T05:19:31.475Z,101304.02
2018-06-03T05:21:58.737Z,101303.66
2018-06-03T05:24:25.892Z,101305.13
2018-06-03T05:26:53.014Z,101309.59
2018-06-03T05:29:20.279Z,101311.37
2018-06-03T05:31:47.504Z,101308.56
2018-06-03T05:34:14.622Z,101314.20
2018-06-03T05:36:43.058Z,101305.11
2018-06-03T05:39:10.274Z,101311.39
2018-06-03T05:41:37.420Z,101311.30
2018-06-03T05:44:04.687Z,101309.13
2018-06-03T05:46:32.281Z,101304.64
2018-06-03T05:48:59.434Z,101308.26
2018-06-03T05:51:26.627Z,101313.73
2018-06-03T05:53:53.784Z,101313.28
2018-06-03T05:56:21.017Z,101309.45
2018-06-03T05:58:48.733Z,101315.95
2018-06-03T06:01:15.986Z,101311.73
2018-06-03T06:03:43.131Z,101319.27
2018-06-03T06:06:10.339Z,101317.54
2018-06-03T06:08:37.610Z,101324.67
2018-06-03T06:11:04.723Z,101317.70
2018-06-03T06:13:31.937Z,101322.88
2018-06-03T06:15:59.111Z,101317.23
2018-06-03T06:18:26.263Z,101320.92
2018-06-03T06:20:53.537Z,101320.45
2018-06-03T06:23:20.756Z,101322.27
2018-06-03T06:25:47.887Z,101325.90
2018-06-03T06:28:15.324Z,101327.80
2018-06-03T06:30:42.496Z,101323.39
2018-06-03T06:33:09.729Z,101323.00
2018-06-03T06:35:36.975Z,101324.80
2018-06-03T06:38:04.124Z,101330.25
2018-06-03T06:40:31.253Z,101331.98
2018-06-03T06:42:58.564Z,101336.23
2018-06-03T06:45:26.355Z,101336.70
2018-06-03T06:47:53.474Z,101338.51
2018-06-03T06:50:20.623Z,101329.70
2018-06-03T06:52:47.748Z,101331.91
2018-06-03T06:55:14.920Z,101327.76
2018-06-03T06:57:42.197Z,101329.48
2018-06-03T07:00:09.326Z,101329.30
2018-06-03T07:02:36.444Z,101334.63
2018-06-03T07:05:03.666Z,101331.34
2018-06-03T07:07:30.757Z,101337.40
2018-06-03T07:09:57.957Z,101343.28
2018-06-03T07:12:25.188Z,101337.22
2018-06-03T07:14:52.335Z,101343.28
2018-06-03T07:17:19.444Z,101338.56
2018-06-03T07:19:46.653Z,101345.72
2018-06-03T07:22:13.856Z,101348.09
2018-06-03T07:24:40.948Z,101352.00
2018-06-03T07:27:08.157Z,101359.72
2018-06-03T07:29:35.305Z,101356.17
2018-06-03T07:32:02.435Z,101359.79
2018-06-03T07:34:30.484Z,101353.33
2018-06-03T07:36:57.582Z,101353.05
2018-06-03T07:39:24.693Z,101355.64
2018-06-03T07:41:51.844Z,101353.59
2018-06-03T07:44:18.923Z,101356.98
2018-06-03T07:46:46.104Z,101360.48
2018-06-03T07:49:13.242Z,101361.34
2018-06-03T07:51:40.408Z,101357.12
2018-06-03T07:54:07.530Z,101366.47
2018-06-03T07:56:34.693Z,101362.53
2018-06-03T07:59:01.963Z,101360.98
2018-06-03T08:01:29.169Z,101361.59
2018-06-03T08:03:56.671Z,101361.74
2018-06-03T08:06:23.792Z,101365.45
2018-06-03T08:08:50.890Z,101364.73
2018-06-03T08:11:18.113Z,101364.34
2018-06-03T08:13:45.217Z,101358.45
2018-06-03T08:16:12.386Z,101368.59
2018-06-03T08:18:39.547Z,101366.79
2018-06-03T08:21:06.698Z,101369.74
2018-06-03T08:23:33.938Z,101375.80
2018-06-03T08:26:01.330Z,101369.28
2018-06-03T08:28:28.517Z,101372.89
2018-06-03T08:30:55.657Z,101383.43
2018-06-03T08:33:22.811Z,101378.89
2018-06-03T08:35:49.995Z,101377.30
2018-06-03T08:38:17.133Z,101374.95
2018-06-03T08:40:44.277Z,101378.58
2018-06-03T08:43:11.410Z,101384.59
2018-06-03T08:45:38.541Z,101387.81
2018-06-03T08:48:06.165Z,101388.14
2018-06-03T08:50:33.342Z,101393.55
2018-06-03T08:53:00.424Z,101390.23
2018-06-03T08:55:27.707Z,101391.42
2018-06-03T08:57:54.822Z,101393.77
2018-06-03T09:00:22.034Z,101395.34
2018-06-03T09:02:49.217Z,101396.61
2018-06-03T09:05:16.361Z,101399.11
2018-06-03T09:07:43.524Z,101394.56
2018-06-03T09:10:10.728Z,101391.05
2018-06-03T09:12:37.872Z,101392.23
2018-06-03T09:15:05.380Z,101394.83
2018-06-03T09:17:32.588Z,101396.30
2018-06-03T09:19:59.729Z,101398.27
2018-06-03T09:22:26.917Z,101399.05
2018-06-03T09:24:54.606Z,101395.98
2018-06-03T09:27:21.949Z,101390.05
2018-06-03T09:29:49.033Z,101391.69
2018-06-03T09:32:16.225Z,101394.74
2018-06-03T09:34:43.458Z,101388.31
2018-06-03T09:37:10.595Z,101389.92
2018-06-03T09:39:37.788Z,101392.81
2018-06-03T09:42:05.055Z,101383.34
2018-06-03T09:44:32.295Z,101380.75
2018-06-03T09:46:59.548Z,101382.92
2018-06-03T09:49:26.636Z,101388.95
2018-06-03T09:51:53.789Z,101394.14
2018-06-03T09:54:20.944Z,101390.55
2018-06-03T09:56:48.073Z,101397.29
2018-06-03T09:59:15.275Z,101394.02
2018-06-03T10:01:42.424Z,101395.42
2018-06-03T10:04:09.536Z,101396.69
2018-06-03T10:06:36.705Z,101399.20
2018-06-03T10:09:05.742Z,101402.87
2018-06-03T10:11:32.980Z,101405.56
2018-06-03T10:14:00.201Z,101411.28
2018-06-03T10:16:27.436Z,101407.89
2018-06-03T10:18:54.587Z,101407.56
2018-06-03T10:21:21.671Z,101406.97
2018-06-03T10:23:48.914Z,101401.89
2018-06-03T10:26:16.132Z,101406.16
2018-06-03T10:28:43.271Z,101402.92
2018-06-03T10:31:10.432Z,101394.27
2018-06-03T10:33:37.629Z,101397.83
2018-06-03T10:36:04.893Z,101399.63
2018-06-03T10:38:32.102Z,101400.49
2018-06-03T10:40:59.265Z,101406.59
2018-06-03T10:43:26.501Z,101400.02
2018-06-03T10:45:53.658Z,101406.71
2018-06-03T10:48:21.417Z,101408.70
2018-06-03T10:50:48.665Z,101414.63
2018-06-03T10:53:15.924Z,101412.02
2018-06-03T10:55:43.155Z,101415.83
2018-06-03T10:58:10.333Z,101410.90
2018-06-03T11:00:37.808Z,101414.38
2018-06-03T11:03:05.012Z,101411.06
2018-06-03T11:05:32.118Z,101404.40
2018-06-03T11:07:59.255Z,101407.26
2018-06-03T11:10:26.603Z,101409.69
2018-06-03T11:12:53.703Z,101410.40
2018-06-03T11:15:20.829Z,101402.95
2018-06-03T11:17:48.174Z,101398.45
2018-06-03T11:20:15.313Z,101404.61
2018-06-03T11:22:42.486Z,101395.67
2018-06-03T11:25:09.671Z,101398.96
2018-06-03T11:27:37.060Z,101395.98
2018-06-03T11:30:04.268Z,101396.50
2018-06-03T11:32:31.354Z,101399.36
2018-06-03T11:34:58.680Z,101401.99
2018-06-03T11:37:25.979Z,101404.75
2018-06-03T11:39:53.102Z,101400.34
2018-06-03T11:42:20.269Z,101393.78
2018-06-03T11:44:47.444Z,101393.03
2018-06-03T11:47:14.580Z,101388.72
2018-06-03T11:49:42.524Z,101390.81
2018-06-03T11:52:09.725Z,101388.25
2018-06-03T11:54:37.417Z,101382.72
2018-06-03T11:57:04.577Z,101379.56
2018-06-03T11:59:41.198Z,101385.83
2018-06-03T12:02:09.307Z,101389.16
2018-06-03T12:04:36.689Z,101379.76
2018-06-03T12:07:04.020Z,101381.78
2018-06-03T12:09:31.143Z,101380.27
2018-06-03T12:11:58.454Z,101378.90
2018-06-03T12:14:25.616Z,101382.49
2018-06-03T12:16:58.548Z,101385.48
2018-06-03T12:19:25.732Z,101387.38
2018-06-03T12:21:52.859Z,101378.11
2018-06-03T12:24:20.004Z,101385.45
2018-06-03T12:26:47.132Z,101375.05
2018-06-03T12:29:14.361Z,101382.92
2018-06-03T12:31:41.610Z,101382.87
2018-06-03T12:34:08.729Z,101375.53
2018-06-03T12:36:35.932Z,101370.92
2018-06-03T12:39:05.526Z,101370.83
2018-06-03T12:41:32.716Z,101363.25
2018-06-03T12:43:59.988Z,101360.81
2018-06-03T12:46:27.182Z,101361.52
2018-06-03T12:48:54.388Z,101354.88
2018-06-03T12:51:22.129Z,101357.39
2018-06-03T12:53:49.316Z,101346.84
2018-06-03T12:56:16.546Z,101345.41
2018-06-03T12:58:43.733Z,101338.67
2018-06-03T13:01:10.886Z,101344.22
2018-06-03T13:03:38.105Z,101336.13
2018-06-03T13:06:05.455Z,101340.66
2018-06-03T13:08:32.609Z,101336.61
2018-06-03T13:10:59.831Z,101335.13
2018-06-03T13:13:27.015Z,101336.09
2018-06-03T13:15:54.848Z,101328.72
2018-06-03T13:18:22.070Z,101329.25
2018-06-03T13:20:49.313Z,101325.07
2018-06-03T13:23:16.496Z,101320.52
2018-06-03T13:25:43.604Z,101315.36
2018-06-03T13:28:10.880Z,101313.52
2018-06-03T13:30:38.041Z,101314.62
2018-06-03T13:33:05.271Z,101305.78
2018-06-03T13:35:32.469Z,101303.77
2018-06-03T13:37:59.619Z,101305.30
2018-06-03T13:40:27.873Z,101301.28
2018-06-03T13:42:55.075Z,101303.55
2018-06-03T13:45:22.225Z,101301.89
2018-06-03T13:47:49.777Z,101291.27
2018-06-03T13:50:17.014Z,101288.83
2018-06-03T13:52:44.296Z,101282.19
2018-06-03T13:55:11.447Z,101286.39
2018-06-03T13:57:38.673Z,101284.50
2018-06-03T14:00:05.904Z,101281.06
2018-06-03T14:02:34.429Z,101285.17
2018-06-03T14:05:02.676Z,101275.56
2018-06-03T14:07:29.917Z,101274.55
2018-06-03T14:09:57.025Z,101278.23
2018-06-03T14:12:24.236Z,101270.40
2018-06-03T14:14:51.397Z,101271.56
2018-06-03T14:17:18.592Z,101271.14
2018-06-03T14:19:46.059Z,101267.13
2018-06-03T14:22:13.930Z,101269.90
2018-06-03T14:24:41.123Z,101261.83
2018-06-03T14:27:08.328Z,101268.74
2018-06-03T14:29:35.568Z,101264.13
2018-06-03T14:32:03.036Z,101261.47
2018-06-03T14:34:30.236Z,101267.03
2018-06-03T14:36:57.466Z,101268.70
2018-06-03T14:40:27.847Z,101262.66
2018-06-03T14:42:55.082Z,101256.09
2018-06-03T14:45:22.267Z,101250.36
2018-06-03T14:47:50.013Z,101252.09
2018-06-03T14:50:17.191Z,101248.21
2018-06-03T14:52:44.345Z,101248.02
2018-06-03T14:55:11.519Z,101244.88
2018-06-03T14:57:39.684Z,101244.12
2018-06-03T15:00:06.787Z,101231.58
2018-06-03T15:02:33.969Z,101239.46
2018-06-03T15:05:01.117Z,101240.97
2018-06-03T15:07:28.271Z,101237.31
2018-06-03T15:09:55.465Z,101235.94
2018-06-03T15:12:22.685Z,101234.64
2018-06-03T15:14:49.821Z,101234.73
2018-06-03T15:17:17.016Z,101232.98
2018-06-03T15:19:44.169Z,101234.18
2018-06-03T15:22:11.572Z,101227.06
2018-06-03T15:24:39.143Z,101223.96
2018-06-03T15:27:06.335Z,101219.23
2018-06-03T15:29:33.481Z,101221.22
2018-06-03T15:32:00.646Z,101225.09
2018-06-03T15:34:27.777Z,101217.23
2018-06-03T15:36:54.986Z,101219.27
2018-06-03T15:39:22.197Z,101212.89
2018-06-03T15:41:49.321Z,101218.16
2018-06-03T15:44:16.606Z,101215.77
2018-06-03T15:46:43.911Z,101209.99
2018-06-03T15:49:11.068Z,101212.73
2018-06-03T15:51:38.171Z,101209.82
2018-06-03T15:54:05.355Z,101205.74
2018-06-03T15:56:32.629Z,101206.85
2018-06-03T15:58:59.766Z,101196.86
2018-06-03T16:01:27.550Z,101206.56
2018-06-03T16:03:54.688Z,101189.44
2018-06-03T16:06:21.833Z,101188.02
2018-06-03T16:08:49.054Z,101186.00
2018-06-03T16:11:16.302Z,101181.82
2018-06-03T16:13:43.417Z,101181.09
2018-06-03T16:16:10.650Z,101179.31
2018-06-03T16:18:37.719Z,101172.03
2018-06-03T16:21:04.925Z,101173.92
2018-06-03T16:23:32.202Z,101174.70
2018-06-03T16:26:00.350Z,101174.05
2018-06-03T16:28:27.480Z,101171.21
2018-06-03T16:30:54.672Z,101167.02
2018-06-03T16:33:21.879Z,101167.90
2018-06-03T16:35:48.966Z,101166.28
2018-06-03T16:38:16.152Z,101161.53
2018-06-03T16:40:43.244Z,101167.77
2018-06-03T16:43:10.404Z,101167.04
2018-06-03T16:45:37.592Z,101161.02
2018-06-03T16:48:04.835Z,101163.63
2018-06-03T16:50:31.997Z,101167.66
2018-06-03T16:52:59.189Z,101159.81
2018-06-03T16:55:26.340Z,101151.02
2018-06-03T16:57:53.428Z,101146.41
2018-06-03T17:00:20.641Z,101149.58
2018-06-03T17:02:47.716Z,101153.74
2018-06-03T17:05:14.870Z,101153.07
2018-06-03T17:07:42.075Z,101151.95
2018-06-03T17:10:09.268Z,101146.27
2018-06-03T17:12:36.473Z,101147.75
2018-06-03T17:15:03.725Z,101141.89
2018-06-03T17:17:30.843Z,101140.28
2018-06-03T17:19:57.964Z,101135.48
2018-06-03T17:22:25.141Z,101130.47
2018-06-03T17:24:52.281Z,101135.57
2018-06-03T17:27:19.443Z,101126.97
2018-06-03T17:29:46.584Z,101128.70
2018-06-03T17:32:13.770Z,101123.42
2018-06-03T17:34:40.877Z,101128.41
2018-06-03T17:37:08.049Z,101123.17
2018-06-03T17:39:35.171Z,101116.18
2018-06-03T17:42:02.284Z,101115.13
2018-06-03T17:44:29.555Z,101118.70
2018-06-03T17:46:56.725Z,101112.14
2018-06-03T17:49:23.841Z,101111.09
2018-06-03T17:51:51.015Z,101110.55
2018-06-03T17:54:18.237Z,101103.34
2018-06-03T17:56:45.493Z,101102.59
2018-06-03T17:59:12.775Z,101099.04
2018-06-03T18:01:39.957Z,101088.06
2018-06-03T18:04:07.146Z,101092.56
2018-06-03T18:06:34.308Z,101091.03
2018-06-03T18:09:01.452Z,101088.84
2018-06-03T18:11:28.580Z,101093.63
2018-06-03T18:13:55.757Z,101082.29
2018-06-03T18:16:22.926Z,101088.84
2018-06-03T18:18:50.073Z,101089.50
2018-06-03T18:21:17.299Z,101094.70
2018-06-03T18:23:44.458Z,101092.91
2018-06-03T18:26:11.622Z,101094.28
2018-06-03T18:28:38.990Z,101085.18
2018-06-03T18:31:06.431Z,101091.61
2018-06-03T18:33:33.534Z,101094.70
2018-06-03T18:36:00.703Z,101089.05
2018-06-03T18:38:27.888Z,101090.77
2018-06-03T18:40:55.049Z,101089.80
2018-06-03T18:43:22.253Z,101093.73
2018-06-03T18:45:49.481Z,101082.85
2018-06-03T18:48:16.793Z,101078.39
2018-06-03T18:50:44.016Z,101080.24
2018-06-03T18:53:11.171Z,101077.76
2018-06-03T18:55:38.257Z,101083.85
2018-06-03T18:58:05.441Z,101082.12
2018-06-03T19:00:32.565Z,101084.53
2018-06-03T19:02:59.944Z,101085.25
2018-06-03T19:05:27.128Z,101084.48
2018-06-03T19:07:54.251Z,101090.71
2018-06-03T19:10:21.453Z,101088.91
2018-06-03T19:12:48.627Z,101087.77
2018-06-03T19:15:15.760Z,101084.64
2018-06-03T19:17:47.826Z,101089.03
2018-06-03T19:20:14.980Z,101088.91
2018-06-03T19:22:42.107Z,101095.49
2018-06-03T19:25:09.316Z,101087.02
2018-06-03T19:27:36.491Z,101091.69
2018-06-03T19:30:03.640Z,101094.13
2018-06-03T19:32:30.784Z,101102.72
2018-06-03T19:34:57.987Z,101096.18
2018-06-03T19:37:25.122Z,101099.38
2018-06-03T19:39:52.357Z,101100.45
2018-06-03T19:42:19.504Z,101104.02
2018-06-03T19:44:46.639Z,101102.45
2018-06-03T19:47:13.830Z,101101.63
2018-06-03T19:49:41.044Z,101100.22
2018-06-03T19:52:08.172Z,101108.25
2018-06-03T19:54:35.321Z,101102.36
2018-06-03T19:57:02.493Z,101104.59
2018-06-03T19:59:29.648Z,101107.13
2018-06-03T20:01:57.601Z,101099.61
2018-06-03T20:04:25.086Z,101103.38
2018-06-03T20:06:52.312Z,101100.57
2018-06-03T20:09:19.443Z,101098.20
2018-06-03T20:11:46.548Z,101106.94
2018-06-03T20:14:14.028Z,101102.00
2018-06-03T20:16:41.313Z,101106.22
2018-06-03T20:19:08.448Z,101109.08
2018-06-03T20:21:35.706Z,101110.63
2018-06-03T20:24:03.074Z,101110.88
2018-06-03T20:26:31.076Z,101108.42
2018-06-03T20:28:58.234Z,101108.21
2018-06-03T20:31:26.085Z,101102.30
2018-06-03T20:33:53.639Z,101104.36
2018-06-03T20:36:20.792Z,101107.59
2018-06-03T20:38:47.931Z,101107.30
2018-06-03T20:41:15.338Z,101110.84
2018-06-03T20:43:42.485Z,101114.11
2018-06-03T20:46:09.633Z,101106.83
2018-06-03T20:48:36.719Z,101111.11
2018-06-03T20:51:03.905Z,101104.69
2018-06-03T20:53:31.097Z,101109.77
2018-06-03T20:55:58.198Z,101103.88
2018-06-03T20:58:25.332Z,101099.09
2018-06-03T21:00:52.494Z,101101.92
2018-06-03T21:03:19.599Z,101097.67
2018-06-03T21:05:46.732Z,101096.95
2018-06-03T21:08:13.887Z,101102.51
2018-06-03T21:10:40.951Z,101098.59
2018-06-03T21:13:08.117Z,101104.52
2018-06-03T21:15:35.287Z,101109.54
2018-06-03T21:18:02.437Z,101108.28
2018-06-03T21:20:29.573Z,101108.74
2018-06-03T21:22:56.772Z,101104.75
2018-06-03T21:25:23.867Z,101111.73
2018-06-03T21:27:51.011Z,101105.15
2018-06-03T21:30:18.200Z,101113.47
2018-06-03T21:32:45.303Z,101106.41
2018-06-03T21:35:12.423Z,101108.41
2018-06-03T21:37:39.575Z,101107.78
2018-06-03T21:40:06.687Z,101102.66
2018-06-03T21:42:33.932Z,101098.37
2018-06-03T21:45:01.240Z,101103.89
2018-06-03T21:47:28.353Z,101102.23
2018-06-03T21:49:55.468Z,101099.93
2018-06-03T21:52:22.744Z,101105.91
2018-06-03T21:54:49.895Z,101102.28
2018-06-03T21:57:17.032Z,101101.88
2018-06-03T21:59:44.259Z,101102.48
2018-06-03T22:02:11.351Z,101096.52
2018-06-03T22:04:38.469Z,101093.99
2018-06-03T22:07:05.624Z,101088.61
2018-06-03T22:09:32.761Z,101085.81
2018-06-03T22:11:59.961Z,101090.05
2018-06-03T22:14:27.208Z,101089.05
2018-06-03T22:16:54.312Z,101087.09
2018-06-03T22:19:21.416Z,101084.99
2018-06-03T22:21:48.572Z,101084.59
2018-06-03T22:24:15.720Z,101088.19
2018-06-03T22:26:42.901Z,101087.05
2018-06-03T22:29:10.041Z,101088.73
2018-06-03T22:31:37.199Z,101089.66
2018-06-03T22:34:04.449Z,101086.49
2018-06-03T22:36:31.700Z,101091.41
2018-06-03T22:38:58.910Z,101089.31
2018-06-03T22:41:26.008Z,101080.42
2018-06-03T22:43:53.251Z,101080.83
2018-06-03T22:46:20.363Z,101085.41
2018-06-03T22:48:47.511Z,101091.47
2018-06-03T22:51:14.670Z,101086.73
2018-06-03T22:53:41.831Z,101082.81
2018-06-03T22:56:08.991Z,101082.81
2018-06-03T22:58:36.559Z,101080.31
2018-06-03T23:01:03.738Z,101080.67
2018-06-03T23:03:30.895Z,101077.95
2018-06-03T23:05:58.062Z,101084.54
2018-06-03T23:08:25.185Z,101079.09
2018-06-03T23:10:52.295Z,101088.30
2018-06-03T23:13:19.509Z,101079.22
2018-06-03T23:15:46.629Z,101076.16
2018-06-03T23:18:13.730Z,101069.39
2018-06-03T23:20:40.911Z,101072.28
2018-06-03T23:23:08.016Z,101069.45
2018-06-03T23:25:36.086Z,101069.78
2018-06-03T23:28:03.284Z,101072.75
2018-06-03T23:30:30.411Z,101070.31
2018-06-03T23:32:57.499Z,101068.00
2018-06-03T23:35:24.631Z,101066.22
2018-06-03T23:37:51.763Z,101065.77
2018-06-03T23:40:18.893Z,101064.49
2018-06-03T23:42:46.085Z,101064.03
2018-06-03T23:45:13.195Z,101068.30
2018-06-03T23:47:40.331Z,101064.55
2018-06-03T23:50:07.465Z,101063.92
2018-06-03T23:52:34.555Z,101066.05
2018-06-03T23:55:01.741Z,101067.66
2018-06-03T23:57:28.892Z,101069.77
2018-06-03T23:59:55.995Z,101070.84
